Terminal Aerodrome Forecast
Issued by NWS

Home | Current Version | Previous Version | Text Only | Print | Product List | Glossary On
Versions: 1 2 3 4 5 6 7 8 9 10 11 12 13 14 15 16
660
FTUS42 KMLB 240043 AAA
TAFSFB
TAF AMD
KSFB 240043Z 2401/2424 21008KT P6SM VCTS SCT040CB SCT080
      TEMPO 2401/2403 TS BKN035CB BKN090
     FM240300 VRB03KT P6SM FEW040 SCT200
     FM241600 13006KT P6SM SCT050 SCT250
     FM242100 10009KT P6SM SCT045 SCT250=

USA.gov is the U.S. government's official web portal to all federal, state and local government web resources and services.